createdAt,value
2023-01-17T00:02:00.726Z,3.03
2023-01-17T00:07:22.348Z,3.03
2023-01-17T00:12:28.974Z,2.98
2023-01-17T00:17:31.363Z,2.92
2023-01-17T00:22:52.739Z,2.94
2023-01-17T00:27:55.184Z,2.95
2023-01-17T00:32:58.030Z,2.98
2023-01-17T00:38:01.792Z,3.02
2023-01-17T00:43:24.968Z,3.01
2023-01-17T00:48:47.310Z,2.95
2023-01-17T00:54:11.980Z,2.93
2023-01-17T00:59:34.272Z,2.96
2023-01-17T01:04:55.813Z,3.01
2023-01-17T01:10:17.133Z,3.07
2023-01-17T01:15:39.525Z,3.02
2023-01-17T01:21:02.479Z,2.96
2023-01-17T01:26:24.680Z,2.92
2023-01-17T01:31:46.441Z,2.88
2023-01-17T01:36:49.906Z,2.85
2023-01-17T01:41:53.026Z,2.82
2023-01-17T01:46:56.303Z,2.83
2023-01-17T01:52:03.663Z,2.81
2023-01-17T01:57:12.303Z,2.80
2023-01-17T02:02:15.573Z,2.75
2023-01-17T02:07:51.372Z,2.76
2023-01-17T02:12:55.904Z,2.84
2023-01-17T02:18:19.855Z,2.91
2023-01-17T02:23:32.324Z,2.87
2023-01-17T02:28:40.319Z,2.85
2023-01-17T02:34:01.009Z,2.86
2023-01-17T02:39:19.214Z,2.89
2023-01-17T02:44:22.436Z,2.95
2023-01-17T02:49:28.490Z,2.96
2023-01-17T02:54:52.404Z,2.89
2023-01-17T03:00:27.485Z,2.84
2023-01-17T03:05:47.061Z,2.86
2023-01-17T03:10:50.963Z,2.82
2023-01-17T03:15:53.954Z,2.77
2023-01-17T03:20:56.987Z,2.81
2023-01-17T03:26:00.407Z,2.85
2023-01-17T03:31:02.698Z,2.90
2023-01-17T03:36:05.334Z,2.92
2023-01-17T03:41:09.362Z,2.93
2023-01-17T03:46:24.049Z,2.92
2023-01-17T03:51:28.823Z,2.88
2023-01-17T03:56:32.906Z,2.87
2023-01-17T04:01:36.105Z,2.91
2023-01-17T04:06:39.888Z,2.97
2023-01-17T04:11:44.012Z,2.96
2023-01-17T04:16:51.669Z,2.92
2023-01-17T04:21:55.088Z,2.91
2023-01-17T04:26:58.549Z,2.88
2023-01-17T04:32:01.711Z,2.78
2023-01-17T04:37:04.977Z,2.68
2023-01-17T04:42:07.605Z,2.64
2023-01-17T04:47:10.439Z,2.59
2023-01-17T04:52:15.459Z,2.56
2023-01-17T04:57:19.598Z,2.47
2023-01-17T05:02:22.664Z,2.35
2023-01-17T05:07:24.865Z,2.30
2023-01-17T05:12:29.347Z,2.28
2023-01-17T05:17:33.440Z,2.27
2023-01-17T05:22:36.641Z,2.21
2023-01-17T05:27:38.848Z,2.16
2023-01-17T05:32:41.966Z,2.10
2023-01-17T05:37:48.918Z,2.02
2023-01-17T05:42:55.433Z,1.97
2023-01-17T05:47:59.221Z,1.89
2023-01-17T05:53:08.527Z,1.81
2023-01-17T05:58:18.408Z,1.77
2023-01-17T06:03:21.330Z,1.77
2023-01-17T06:08:24.241Z,1.79
2023-01-17T06:13:28.457Z,1.79
2023-01-17T06:18:31.694Z,1.77
2023-01-17T06:23:34.365Z,1.78
2023-01-17T06:28:36.716Z,1.76
2023-01-17T06:33:40.054Z,1.71
2023-01-17T06:38:43.435Z,1.63
2023-01-17T06:43:48.855Z,1.60
2023-01-17T06:48:52.738Z,1.56
2023-01-17T06:53:55.593Z,1.52
2023-01-17T06:58:58.892Z,1.51
2023-01-17T07:04:04.169Z,1.54
2023-01-17T07:09:07.949Z,1.56
2023-01-17T07:14:14.065Z,1.56
2023-01-17T07:19:16.667Z,1.62
2023-01-17T07:24:20.321Z,1.66
2023-01-17T07:29:23.641Z,1.70
2023-01-17T07:34:29.284Z,1.77
2023-01-17T07:39:33.119Z,1.82
2023-01-17T07:44:37.159Z,1.88
2023-01-17T07:49:40.656Z,1.95
2023-01-17T07:54:43.877Z,2.04
2023-01-17T07:59:46.030Z,2.13
2023-01-17T08:04:49.201Z,2.21
2023-01-17T08:09:51.563Z,2.29
2023-01-17T08:14:53.620Z,2.35
2023-01-17T08:19:57.105Z,2.43
2023-01-17T08:25:00.614Z,2.54
2023-01-17T08:30:04.555Z,2.66
2023-01-17T08:35:08.725Z,2.76
2023-01-17T08:40:12.185Z,2.85
2023-01-17T08:45:14.643Z,2.94
2023-01-17T08:50:21.022Z,3.00
2023-01-17T08:55:23.453Z,3.06
2023-01-17T09:00:26.555Z,3.16
2023-01-17T09:05:28.318Z,3.24
2023-01-17T09:10:30.616Z,3.28
2023-01-17T09:15:32.505Z,3.26
2023-01-17T09:20:34.414Z,3.31
2023-01-17T09:25:37.133Z,3.35
2023-01-17T09:30:39.370Z,3.40
2023-01-17T09:35:42.669Z,3.44
2023-01-17T09:40:48.666Z,3.47
2023-01-17T09:45:51.642Z,3.55
2023-01-17T09:51:04.323Z,3.71
2023-01-17T09:56:13.305Z,3.90
2023-01-17T10:01:19.423Z,4.01
2023-01-17T10:06:41.882Z,4.13
2023-01-17T10:11:52.801Z,4.22
2023-01-17T10:17:29.186Z,4.29
2023-01-17T10:23:01.726Z,4.34
2023-01-17T10:28:12.626Z,4.48
2023-01-17T10:33:32.010Z,4.62
2023-01-17T10:38:44.024Z,4.76
2023-01-17T10:44:14.036Z,4.86
2023-01-17T10:49:21.711Z,4.94
2023-01-17T10:54:42.552Z,4.95
2023-01-17T10:59:45.733Z,5.05
2023-01-17T11:04:55.344Z,5.25
2023-01-17T11:10:00.040Z,5.55
2023-01-17T11:15:08.982Z,5.89
2023-01-17T11:20:17.300Z,6.21
2023-01-17T11:25:27.596Z,6.45
2023-01-17T11:30:30.330Z,6.59
2023-01-17T11:35:43.802Z,6.60
2023-01-17T11:40:49.075Z,6.61
2023-01-17T11:46:19.205Z,6.69
2023-01-17T11:51:35.528Z,6.81
2023-01-17T11:56:45.575Z,6.89
2023-01-17T12:02:10.533Z,6.90
2023-01-17T12:07:28.043Z,6.95
2023-01-17T12:13:05.716Z,6.95
2023-01-17T12:18:27.085Z,6.97
2023-01-17T12:24:00.905Z,6.99
2023-01-17T12:29:21.464Z,7.01
2023-01-17T12:34:40.392Z,7.02
2023-01-17T12:39:53.038Z,7.04
2023-01-17T12:45:10.041Z,7.13
2023-01-17T12:50:26.717Z,7.21
2023-01-17T12:55:31.977Z,7.24
2023-01-17T13:00:38.642Z,7.21
2023-01-17T13:05:45.811Z,7.18
2023-01-17T13:10:57.541Z,7.19
2023-01-17T13:16:27.754Z,7.10
2023-01-17T13:21:37.230Z,7.12
2023-01-17T13:26:55.220Z,7.14
2023-01-17T13:32:26.378Z,7.14
2023-01-17T13:37:53.455Z,7.13
2023-01-17T13:42:59.787Z,7.08
2023-01-17T13:48:23.204Z,6.98
2023-01-17T13:53:35.784Z,6.94
2023-01-17T13:58:54.999Z,6.80
2023-01-17T14:03:58.802Z,6.58
2023-01-17T14:09:27.151Z,6.37
2023-01-17T14:14:45.571Z,6.24
2023-01-17T14:19:55.697Z,6.10
2023-01-17T14:25:17.391Z,5.95
2023-01-17T14:30:25.138Z,5.85
2023-01-17T14:35:48.607Z,5.84
2023-01-17T14:41:08.566Z,5.84
2023-01-17T14:46:28.602Z,5.76
2023-01-17T14:51:35.250Z,5.62
2023-01-17T14:56:38.803Z,5.54
2023-01-17T15:01:42.046Z,5.43
2023-01-17T15:06:48.113Z,5.35
2023-01-17T15:11:52.511Z,5.22
2023-01-17T15:16:55.040Z,5.02
2023-01-17T15:21:57.980Z,4.82
2023-01-17T15:27:05.864Z,4.66
2023-01-17T15:32:19.914Z,4.53
2023-01-17T15:37:32.342Z,4.39
2023-01-17T15:42:39.057Z,4.33
2023-01-17T15:47:43.980Z,4.28
2023-01-17T15:52:53.714Z,4.23
2023-01-17T15:57:57.743Z,4.10
2023-01-17T16:03:01.450Z,3.99
2023-01-17T16:08:04.438Z,3.87
2023-01-17T16:13:09.389Z,3.77
2023-01-17T16:18:19.348Z,3.72
2023-01-17T16:23:22.526Z,3.70
2023-01-17T16:28:26.091Z,3.64
2023-01-17T16:33:28.548Z,3.59
2023-01-17T16:38:32.254Z,3.54
2023-01-17T16:43:34.913Z,3.45
2023-01-17T16:48:38.050Z,3.36
2023-01-17T16:53:41.549Z,3.21
2023-01-17T16:58:44.382Z,2.93
2023-01-17T17:03:49.571Z,2.73
2023-01-17T17:08:52.276Z,2.57
2023-01-17T17:13:57.695Z,2.35
2023-01-17T17:19:07.381Z,1.98
2023-01-17T17:24:12.930Z,1.73
2023-01-17T17:29:16.180Z,1.57
2023-01-17T17:34:18.905Z,1.41
2023-01-17T17:39:21.659Z,1.28
2023-01-17T17:44:24.443Z,1.23
2023-01-17T17:49:27.824Z,1.16
2023-01-17T17:54:32.699Z,1.08
2023-01-17T17:59:34.998Z,1.04
2023-01-17T18:04:37.515Z,0.94
2023-01-17T18:09:39.909Z,0.71
2023-01-17T18:14:42.187Z,0.58
2023-01-17T18:19:45.986Z,0.52
2023-01-17T18:24:50.433Z,0.39
2023-01-17T18:29:53.446Z,0.24
2023-01-17T18:34:58.145Z,0.09
2023-01-17T18:40:02.911Z,-0.01
2023-01-17T18:45:08.536Z,-0.11
2023-01-17T18:50:11.032Z,-0.15
2023-01-17T18:55:13.248Z,-0.18
2023-01-17T19:00:17.539Z,-0.29
2023-01-17T19:05:21.323Z,-0.36
2023-01-17T19:10:26.218Z,-0.33
2023-01-17T19:15:32.988Z,-0.21
2023-01-17T19:20:36.486Z,-0.05
2023-01-17T19:25:39.787Z,-0.03
2023-01-17T19:30:42.602Z,-0.14
2023-01-17T19:35:45.646Z,-0.22
2023-01-17T19:40:50.422Z,-0.32
2023-01-17T19:46:00.208Z,-0.41
2023-01-17T19:51:11.559Z,-0.50
2023-01-17T19:56:24.395Z,-0.60
2023-01-17T20:01:35.443Z,-0.74
2023-01-17T20:06:41.457Z,-0.75
2023-01-17T20:11:50.628Z,-0.74
2023-01-17T20:16:56.920Z,-0.62
2023-01-17T20:22:04.358Z,-0.50
2023-01-17T20:27:15.982Z,-0.43
2023-01-17T20:32:28.036Z,-0.43
2023-01-17T20:37:36.997Z,-0.49
2023-01-17T20:42:41.952Z,-0.49
2023-01-17T20:47:47.478Z,-0.59
2023-01-17T20:52:51.428Z,-0.63
2023-01-17T20:57:55.062Z,-0.68
2023-01-17T21:02:58.514Z,-0.83
2023-01-17T21:08:04.158Z,-0.85
2023-01-17T21:13:07.414Z,-0.84
2023-01-17T21:18:10.119Z,-0.94
2023-01-17T21:23:17.792Z,-1.05
2023-01-17T21:28:21.573Z,-1.13
2023-01-17T21:33:26.743Z,-1.19
2023-01-17T21:38:31.285Z,-1.20
2023-01-17T21:43:35.061Z,-1.20
2023-01-17T21:48:41.029Z,-1.15
2023-01-17T21:53:44.281Z,-1.11
2023-01-17T21:58:53.831Z,-1.09
2023-01-17T22:04:02.941Z,-1.13
2023-01-17T22:09:07.142Z,-1.13
2023-01-17T22:14:10.484Z,-1.19
2023-01-17T22:19:12.951Z,-1.25
2023-01-17T22:24:17.744Z,-1.27
2023-01-17T22:29:21.515Z,-1.27
2023-01-17T22:34:26.876Z,-1.14
2023-01-17T22:39:29.974Z,-1.05
2023-01-17T22:44:32.884Z,-1.02
2023-01-17T22:49:35.305Z,-1.00
2023-01-17T22:54:37.892Z,-0.99
2023-01-17T22:59:40.279Z,-0.93
2023-01-17T23:04:43.035Z,-0.91
2023-01-17T23:09:45.981Z,-0.92
2023-01-17T23:15:08.234Z,-0.92
2023-01-17T23:20:12.093Z,-0.87
2023-01-17T23:25:15.669Z,-0.81
2023-01-17T23:30:50.868Z,-0.78
2023-01-17T23:35:53.752Z,-0.81
2023-01-17T23:41:26.781Z,-0.76
2023-01-17T23:46:30.191Z,-0.72
2023-01-17T23:51:33.144Z,-0.69
2023-01-17T23:56:35.757Z,-0.66
